::: dream skyward :::
rwy22.exblog.jp
Top
羽田空港に雷雲、離着陸便待機 一部で目的地変更
2011年 08月 26日 |
e0215320_1714493.png


rjtt_metar 5:06pm via METAR Updater

RJTT 260747Z 03017KT 0800 R34L/0600V1400U R22/0700V1700D R34R/0550V1100U R23///// +TSRA FEW001 SCT002 BKN005 BKN030CB 24/23 Q1015 (cont.)

RJTT 260747Z (cont.) RMK 2ST001 3ST002 5ST005 6CB030 A2997 MOD TS OHD MOV UNKNOWN

羽田空港付近の上空で雷雲が発生している影響で、同空港の出発便は26日午後4時半ごろから地上で待機し、到着便も上空で天候の回復を待っている。帯広発のエア・ドゥと、宮崎発のスカイネットアジア航空の各1便が新潟空港と中部国際空港に目的地を変更した。国土交通省東京空港事務所によると、滑走路は閉鎖していないという。(ニュースサイトより)


勤務地の汐留のビルからお台場・羽田方面を見てもガスの中にスッポリ入っていてほとんど何も見えない。

難しいシチュエーションですが、管制、運航 関係者頑張ってください。
[PR]
by blackqualis | 2011-08-26 17:15 | RJTT
<< 去らない台風 PageTop комбинат 3AM. >>
XML | ATOM

個人情報保護
情報取得について
免責事項
Sky Plane Skin by Sun&Moon